Time;durP1;ratioP1;P1;durP2;ratioP2;P2;SDS_P1;SDS_P2;PMS_P1;PMS_P2;Temp;Humidity;BMP_temperature;BMP_pressure;BME280_temperature;BME280_humidity;BME280_pressure;Samples;Min_cycle;Max_cycle;Signal;HPM_P1;HPM_P2
2022/03/08 00:01:03;;;;;;;7.60;4.67;;;2.00;99.90;;;;;;5043684;28;20566;-67
2022/03/08 00:03:31;;;;;;;9.30;4.50;;;2.00;99.90;;;;;;5052677;28;20289;-67
2022/03/08 00:05:58;;;;;;;9.20;4.50;;;1.90;99.90;;;;;;5053235;28;20247;-67
2022/03/08 00:08:25;;;;;;;7.27;4.20;;;2.00;99.90;;;;;;5041397;28;20206;-69
2022/03/08 00:10:52;;;;;;;9.90;4.53;;;1.90;99.90;;;;;;5037908;28;20210;-67
2022/03/08 00:13:19;;;;;;;10.23;4.77;;;1.90;99.90;;;;;;5035182;28;20235;-68
2022/03/08 00:15:46;;;;;;;7.27;4.50;;;1.90;99.90;;;;;;5054353;28;20641;-68
2022/03/08 00:18:13;;;;;;;7.37;4.70;;;1.90;99.90;;;;;;5053599;28;20225;-67
2022/03/08 00:20:42;;;;;;;8.20;5.10;;;1.90;99.90;;;;;;5040552;28;20724;-68
2022/03/08 00:23:08;;;;;;;7.43;4.53;;;1.80;99.90;;;;;;5053160;28;20245;-66
2022/03/08 00:25:36;;;;;;;7.77;3.97;;;1.80;99.90;;;;;;5048431;28;20317;-67
2022/03/08 00:28:03;;;;;;;6.90;4.67;;;1.80;99.90;;;;;;5043489;28;20202;-67
2022/03/08 00:30:30;;;;;;;8.57;5.07;;;1.80;99.90;;;;;;5052406;28;20292;-68
2022/03/08 00:32:57;;;;;;;6.80;4.50;;;1.70;99.90;;;;;;5053559;28;20675;-67
2022/03/08 00:35:25;;;;;;;9.27;4.50;;;1.70;99.90;;;;;;5053735;28;20213;-67
2022/03/08 00:37:55;;;;;;;8.20;4.50;;;1.70;99.90;;;;;;5040032;28;20212;-68
2022/03/08 00:40:23;;;;;;;5.77;3.80;;;1.70;99.90;;;;;;5054730;28;20572;-68
2022/03/08 00:42:51;;;;;;;6.13;3.97;;;1.60;99.90;;;;;;5052577;28;20199;-68
2022/03/08 00:45:19;;;;;;;6.27;3.90;;;1.60;99.90;;;;;;5053996;28;20209;-69
2022/03/08 00:47:46;;;;;;;7.70;3.83;;;1.50;99.90;;;;;;5047684;28;20236;-68
2022/03/08 00:50:16;;;;;;;5.67;3.87;;;1.50;99.90;;;;;;5053081;28;20296;-67
2022/03/08 00:52:44;;;;;;;6.03;4.00;;;1.40;99.90;;;;;;5052725;28;20259;-68
2022/03/08 00:55:14;;;;;;;7.40;3.90;;;1.40;99.90;;;;;;5053151;28;20865;-67
2022/03/08 00:57:41;;;;;;;9.03;4.30;;;1.40;99.90;;;;;;5046565;28;20578;-68
2022/03/08 01:00:11;;;;;;;6.60;3.80;;;1.40;99.90;;;;;;5046776;28;20213;-68
2022/03/08 01:02:38;;;;;;;8.63;3.73;;;1.40;99.90;;;;;;5051448;28;20237;-68
2022/03/08 01:05:06;;;;;;;9.43;3.90;;;1.40;99.90;;;;;;5051932;28;20302;-68
2022/03/08 01:07:33;;;;;;;8.40;4.43;;;1.30;99.90;;;;;;5040801;28;20266;-68
2022/03/08 01:10:00;;;;;;;7.80;3.70;;;1.30;99.90;;;;;;5041690;28;20216;-68
2022/03/08 01:12:28;;;;;;;7.77;3.77;;;1.40;99.90;;;;;;5053787;28;20256;-68
2022/03/08 01:14:55;;;;;;;7.53;4.57;;;1.30;99.90;;;;;;5053816;28;20309;-69
2022/03/08 01:17:23;;;;;;;7.30;3.87;;;1.30;99.90;;;;;;5040225;28;20237;-69
2022/03/08 01:19:49;;;;;;;7.23;4.33;;;1.30;99.90;;;;;;5053502;28;20313;-67
2022/03/08 01:22:16;;;;;;;8.30;4.50;;;1.40;99.90;;;;;;5053926;28;20662;-69
2022/03/08 01:24:43;;;;;;;6.57;4.20;;;1.30;99.90;;;;;;5050097;28;20238;-68
2022/03/08 01:27:10;;;;;;;11.00;4.80;;;1.30;99.90;;;;;;5051445;28;20234;-69
2022/03/08 01:29:38;;;;;;;7.53;4.40;;;1.30;99.90;;;;;;5053429;28;20217;-68
2022/03/08 01:32:06;;;;;;;7.17;4.33;;;1.30;99.90;;;;;;5039066;28;20220;-68
2022/03/08 01:34:34;;;;;;;8.43;4.87;;;1.30;99.90;;;;;;5041813;28;20692;-69
2022/03/08 01:37:01;;;;;;;8.63;5.03;;;1.30;99.90;;;;;;5048111;28;20206;-68
2022/03/08 01:39:28;;;;;;;9.20;4.50;;;1.30;99.90;;;;;;5048032;28;20256;-68
2022/03/08 01:41:55;;;;;;;8.03;4.70;;;1.30;99.90;;;;;;5053821;28;20317;-68
2022/03/08 01:44:22;;;;;;;8.27;5.03;;;1.20;99.90;;;;;;5054339;28;20221;-68
2022/03/08 01:46:50;;;;;;;6.30;5.10;;;1.20;99.90;;;;;;5052162;28;20222;-68
2022/03/08 01:49:17;;;;;;;10.83;5.17;;;1.20;99.90;;;;;;5054044;28;20206;-68
2022/03/08 01:51:44;;;;;;;8.70;5.10;;;1.20;99.90;;;;;;5051881;28;20218;-68
2022/03/08 01:54:11;;;;;;;8.53;4.97;;;1.20;99.90;;;;;;5052704;28;20240;-68
2022/03/08 01:56:38;;;;;;;11.70;5.90;;;1.20;99.90;;;;;;5047027;28;20559;-67
2022/03/08 01:59:05;;;;;;;7.37;4.93;;;1.20;99.90;;;;;;5043329;28;20555;-68
2022/03/08 02:01:33;;;;;;;7.80;4.87;;;1.20;99.90;;;;;;5053359;28;20202;-68
2022/03/08 02:04:01;;;;;;;8.77;5.20;;;1.10;99.90;;;;;;5052934;28;20285;-68
2022/03/08 02:06:28;;;;;;;9.67;5.50;;;1.20;99.90;;;;;;5050952;28;20297;-69
2022/03/08 02:08:55;;;;;;;7.83;5.50;;;1.10;99.90;;;;;;5055438;28;20584;-68
2022/03/08 02:11:23;;;;;;;8.13;4.40;;;1.10;99.90;;;;;;5055828;28;20198;-68
2022/03/08 02:13:50;;;;;;;8.47;5.37;;;1.20;99.90;;;;;;5055818;28;20218;-67
2022/03/08 02:16:17;;;;;;;8.57;4.77;;;1.10;99.90;;;;;;5056648;28;20293;-68
2022/03/08 02:18:43;;;;;;;8.87;5.03;;;1.10;99.90;;;;;;5042280;28;20212;-67
2022/03/08 02:21:12;;;;;;;9.63;5.13;;;1.00;99.90;;;;;;5054978;28;20312;-68
2022/03/08 02:23:38;;;;;;;7.50;5.30;;;1.00;99.90;;;;;;5056231;28;20208;-68
2022/03/08 02:26:05;;;;;;;10.07;5.40;;;1.00;99.90;;;;;;5056146;28;20255;-69
2022/03/08 02:28:32;;;;;;;10.67;5.33;;;1.10;99.90;;;;;;5050115;28;20267;-69
2022/03/08 02:30:59;;;;;;;10.83;5.13;;;1.00;99.90;;;;;;5053686;28;20305;-69
2022/03/08 02:33:26;;;;;;;11.03;6.20;;;1.00;99.90;;;;;;5040835;28;20222;-68
2022/03/08 02:35:53;;;;;;;9.30;5.40;;;1.00;99.90;;;;;;5054643;28;20201;-68
2022/03/08 02:38:21;;;;;;;10.70;5.43;;;1.00;99.90;;;;;;5054343;28;20238;-67
2022/03/08 02:40:48;;;;;;;12.63;6.43;;;0.90;99.90;;;;;;5053236;28;20667;-68
2022/03/08 02:43:15;;;;;;;9.03;5.17;;;0.90;99.90;;;;;;5054963;28;20206;-68
2022/03/08 02:45:42;;;;;;;13.93;6.30;;;0.90;99.90;;;;;;5055529;28;20228;-68
2022/03/08 02:48:10;;;;;;;11.37;6.20;;;0.90;99.90;;;;;;5051859;28;20234;-68
2022/03/08 02:50:37;;;;;;;8.93;5.50;;;0.80;99.90;;;;;;5046558;28;20249;-67
2022/03/08 02:53:05;;;;;;;6.73;5.27;;;0.80;99.90;;;;;;5055356;28;20241;-68
2022/03/08 02:55:37;;;;;;;8.37;5.70;;;0.80;99.90;;;;;;5055351;28;20217;-67
2022/03/08 02:58:05;;;;;;;11.10;6.30;;;0.80;99.90;;;;;;5041523;28;20210;-68
2022/03/08 03:00:33;;;;;;;9.47;6.10;;;0.80;99.90;;;;;;5054526;28;20285;-69
2022/03/08 03:03:01;;;;;;;11.77;5.77;;;0.80;99.90;;;;;;5050395;28;20718;-68
2022/03/08 03:05:28;;;;;;;8.27;5.53;;;0.80;99.90;;;;;;5041692;28;20253;-68
2022/03/08 03:07:57;;;;;;;8.83;5.77;;;0.70;99.90;;;;;;5049792;28;20584;-68
2022/03/08 03:10:25;;;;;;;11.17;6.17;;;0.70;99.90;;;;;;5052116;28;20640;-68
2022/03/08 03:12:54;;;;;;;10.77;5.90;;;0.70;99.90;;;;;;5054551;28;20593;-68
2022/03/08 03:15:22;;;;;;;8.23;5.80;;;0.70;99.90;;;;;;5054798;28;20297;-68
2022/03/08 03:17:50;;;;;;;8.27;5.97;;;0.70;99.90;;;;;;5054956;28;20256;-67
2022/03/08 03:20:18;;;;;;;10.97;6.03;;;0.70;99.90;;;;;;5039388;28;20302;-68
2022/03/08 03:22:46;;;;;;;9.67;6.03;;;0.70;99.90;;;;;;5054821;28;20292;-68
2022/03/08 03:25:14;;;;;;;9.33;5.63;;;0.70;99.90;;;;;;5054184;28;20205;-68
2022/03/08 03:27:42;;;;;;;9.30;5.33;;;0.70;99.90;;;;;;5054091;28;20266;-68
2022/03/08 03:30:13;;;;;;;10.80;6.50;;;0.70;99.90;;;;;;5052999;28;20651;-68
2022/03/08 03:32:41;;;;;;;10.03;5.67;;;0.70;99.90;;;;;;5041477;28;20643;-68
2022/03/08 03:35:09;;;;;;;12.60;5.63;;;0.70;99.90;;;;;;5048419;28;20205;-69
2022/03/08 03:37:36;;;;;;;8.63;5.80;;;0.70;99.90;;;;;;5042445;28;20209;-68
2022/03/08 03:40:05;;;;;;;7.93;5.57;;;0.70;99.90;;;;;;5054542;28;20205;-68
2022/03/08 03:42:32;;;;;;;12.47;5.47;;;0.70;99.90;;;;;;5054339;28;20263;-69
2022/03/08 03:44:59;;;;;;;9.53;5.70;;;0.70;99.90;;;;;;5054188;28;20198;-69
2022/03/08 03:47:27;;;;;;;8.77;5.33;;;0.70;99.90;;;;;;5053678;28;20337;-68
2022/03/08 03:49:54;;;;;;;8.17;5.80;;;0.60;99.90;;;;;;5052518;28;20317;-69
2022/03/08 03:52:21;;;;;;;10.77;6.10;;;0.60;99.90;;;;;;5045184;28;20728;-68
2022/03/08 03:54:48;;;;;;;7.43;5.27;;;0.60;99.90;;;;;;5054436;28;20234;-68
2022/03/08 03:57:15;;;;;;;9.40;5.47;;;0.60;99.90;;;;;;5055465;28;20213;-68
2022/03/08 03:59:42;;;;;;;9.13;5.53;;;0.60;99.90;;;;;;5044032;28;20693;-67
2022/03/08 04:02:09;;;;;;;7.20;5.00;;;0.60;99.90;;;;;;5046712;28;20246;-68
2022/03/08 04:04:37;;;;;;;10.17;5.73;;;0.60;99.90;;;;;;5047596;28;20202;-69
2022/03/08 04:07:04;;;;;;;9.90;5.77;;;0.60;99.90;;;;;;5053593;28;20647;-68
2022/03/08 04:09:31;;;;;;;9.87;5.77;;;0.60;99.90;;;;;;5053323;28;20225;-67
2022/03/08 04:11:58;;;;;;;7.80;5.70;;;0.60;99.90;;;;;;5053675;28;20216;-68
2022/03/08 04:14:26;;;;;;;8.30;5.87;;;0.60;99.90;;;;;;5053980;28;20248;-69
2022/03/08 04:16:53;;;;;;;8.27;6.17;;;0.60;99.90;;;;;;5053117;28;20224;-68
2022/03/08 04:19:20;;;;;;;10.37;5.57;;;0.60;99.90;;;;;;5052805;28;20588;-69
2022/03/08 04:21:48;;;;;;;10.93;6.00;;;0.70;99.90;;;;;;5050901;28;20316;-69
2022/03/08 04:24:15;;;;;;;7.97;5.17;;;0.70;99.90;;;;;;5049218;28;20241;-68
2022/03/08 04:26:42;;;;;;;7.93;5.43;;;0.70;99.90;;;;;;5053087;28;20214;-69
2022/03/08 04:29:09;;;;;;;8.40;5.37;;;0.70;99.90;;;;;;5045508;28;20201;-69
2022/03/08 04:31:36;;;;;;;8.73;5.80;;;0.70;99.90;;;;;;5042599;28;20297;-68
2022/03/08 04:34:02;;;;;;;7.50;5.83;;;0.70;99.90;;;;;;5050598;28;20268;-69
2022/03/08 04:36:29;;;;;;;8.60;5.57;;;0.70;99.90;;;;;;5048927;28;20682;-68
2022/03/08 04:38:58;;;;;;;6.40;5.13;;;0.70;99.90;;;;;;5045000;28;20203;-68
2022/03/08 04:41:24;;;;;;;8.97;5.60;;;0.70;99.90;;;;;;5040045;28;20655;-68
2022/03/08 04:43:51;;;;;;;7.07;5.03;;;0.80;99.90;;;;;;5052952;28;20276;-69
2022/03/08 04:46:18;;;;;;;8.60;5.53;;;0.80;99.90;;;;;;5039578;28;20238;-69
2022/03/08 04:48:45;;;;;;;8.07;5.07;;;0.80;99.90;;;;;;5051707;28;20212;-68
2022/03/08 04:51:12;;;;;;;7.23;5.27;;;0.80;99.90;;;;;;5041914;28;20213;-69
2022/03/08 04:53:39;;;;;;;7.93;5.10;;;0.80;99.90;;;;;;5053189;28;20256;-69
2022/03/08 04:56:07;;;;;;;7.23;5.00;;;0.80;99.90;;;;;;5049758;28;20677;-68
2022/03/08 04:58:34;;;;;;;9.97;5.70;;;0.80;99.90;;;;;;5046786;28;20261;-68
2022/03/08 05:01:01;;;;;;;9.43;5.93;;;0.80;99.90;;;;;;5039526;28;20230;-68
2022/03/08 05:03:28;;;;;;;7.53;5.20;;;0.80;99.90;;;;;;5050916;28;20206;-67
2022/03/08 05:05:55;;;;;;;8.77;5.40;;;0.80;99.90;;;;;;5053338;28;20587;-68
2022/03/08 05:08:21;;;;;;;8.43;6.80;;;0.80;99.90;;;;;;5052626;28;20210;-68
2022/03/08 05:10:48;;;;;;;9.20;5.63;;;0.80;99.90;;;;;;5044924;28;20210;-68
2022/03/08 05:13:17;;;;;;;12.40;6.93;;;0.80;99.90;;;;;;5047157;28;20308;-68
2022/03/08 05:15:44;;;;;;;10.30;7.07;;;0.80;99.90;;;;;;5049218;28;20308;-68
2022/03/08 05:18:11;;;;;;;10.87;7.23;;;0.90;99.90;;;;;;5045630;28;20579;-68
2022/03/08 05:20:37;;;;;;;12.00;7.40;;;0.90;99.90;;;;;;5052235;28;20253;-70
2022/03/08 05:23:04;;;;;;;13.57;8.47;;;0.80;99.90;;;;;;5050265;28;20245;-69
2022/03/08 05:25:31;;;;;;;13.87;7.97;;;0.70;99.90;;;;;;5040324;28;20209;-68
2022/03/08 05:27:58;;;;;;;13.67;9.13;;;0.70;99.90;;;;;;5045823;28;20297;-68
2022/03/08 05:30:26;;;;;;;15.77;8.73;;;0.70;99.90;;;;;;5051123;28;20241;-68
2022/03/08 05:32:53;;;;;;;15.70;10.23;;;0.70;99.90;;;;;;5043585;28;20224;-68
2022/03/08 05:35:20;;;;;;;14.93;9.33;;;0.70;99.90;;;;;;5051587;28;20225;-68
2022/03/08 05:37:47;;;;;;;12.80;8.80;;;0.70;99.90;;;;;;5052230;28;20667;-68
2022/03/08 05:40:14;;;;;;;15.27;8.93;;;0.70;99.90;;;;;;5047465;28;20710;-68
2022/03/08 05:42:41;;;;;;;17.00;10.60;;;0.70;99.90;;;;;;5053617;28;20589;-69
2022/03/08 05:45:10;;;;;;;17.77;10.97;;;0.70;99.90;;;;;;5050298;28;20613;-68
2022/03/08 05:47:39;;;;;;;18.97;10.90;;;0.80;99.90;;;;;;5056533;28;20291;-68
2022/03/08 05:50:08;;;;;;;13.77;9.70;;;0.80;99.90;;;;;;5050497;28;20652;-68
2022/03/08 05:52:35;;;;;;;18.90;13.10;;;0.80;99.90;;;;;;5048507;28;20293;-69
2022/03/08 05:55:02;;;;;;;17.63;11.60;;;0.80;99.90;;;;;;5055879;28;20253;-68
2022/03/08 05:57:29;;;;;;;15.80;10.97;;;0.80;99.90;;;;;;5056623;28;20214;-69
2022/03/08 05:59:56;;;;;;;16.93;10.87;;;0.80;99.90;;;;;;5052145;28;20293;-69
2022/03/08 06:02:23;;;;;;;20.77;12.77;;;0.70;99.90;;;;;;5046273;28;20210;-69
2022/03/08 06:04:51;;;;;;;21.43;11.90;;;0.70;99.90;;;;;;5055262;28;20312;-68
2022/03/08 06:07:20;;;;;;;20.60;13.30;;;0.60;99.90;;;;;;5056398;28;20288;-68
2022/03/08 06:09:47;;;;;;;22.53;13.53;;;0.50;99.90;;;;;;5055963;28;20569;-68
2022/03/08 06:12:14;;;;;;;21.40;13.10;;;0.50;99.90;;;;;;5056500;28;20213;-68
2022/03/08 06:14:41;;;;;;;20.40;12.47;;;0.50;99.90;;;;;;5057541;28;20221;-69
2022/03/08 06:17:09;;;;;;;18.10;11.27;;;0.50;99.90;;;;;;5054371;28;20213;-71
2022/03/08 06:19:36;;;;;;;15.73;10.67;;;0.50;99.90;;;;;;5065620;28;20221;-71
2022/03/08 06:22:05;;;;;;;15.30;9.50;;;0.40;99.90;;;;;;5065706;28;20253;-68
2022/03/08 06:24:31;;;;;;;19.43;10.27;;;0.40;99.90;;;;;;5058593;28;20285;-69
2022/03/08 06:26:59;;;;;;;22.87;11.37;;;0.40;99.90;;;;;;5057580;28;20207;-71
2022/03/08 06:29:26;;;;;;;18.97;10.93;;;0.40;99.90;;;;;;5067643;28;20240;-73
2022/03/08 06:31:53;;;;;;;17.27;10.47;;;0.30;99.90;;;;;;5061079;28;20229;-72
2022/03/08 06:34:20;;;;;;;13.43;9.50;;;0.30;99.90;;;;;;5062214;28;20218;-73
2022/03/08 06:36:47;;;;;;;15.30;9.23;;;0.30;99.90;;;;;;5060383;28;20241;-73
2022/03/08 06:39:15;;;;;;;20.03;11.77;;;0.30;99.90;;;;;;5058270;28;20652;-73
2022/03/08 06:41:42;;;;;;;19.93;12.87;;;0.40;99.90;;;;;;5052974;28;20640;-73
2022/03/08 06:44:11;;;;;;;17.77;12.03;;;0.40;99.90;;;;;;5051174;28;20292;-73
2022/03/08 06:46:41;;;;;;;20.33;12.83;;;0.40;99.90;;;;;;5050783;28;20233;-73
2022/03/08 06:49:08;;;;;;;18.90;11.57;;;0.40;99.90;;;;;;5050376;28;20569;-72
2022/03/08 06:51:37;;;;;;;20.90;12.57;;;0.40;99.90;;;;;;5052792;28;20207;-72
2022/03/08 06:54:04;;;;;;;24.23;11.97;;;0.50;99.90;;;;;;5053956;28;20249;-71
2022/03/08 06:56:34;;;;;;;25.43;13.67;;;0.50;99.90;;;;;;5053522;28;20204;-73
2022/03/08 06:59:01;;;;;;;22.77;12.87;;;0.60;99.90;;;;;;5063193;28;20206;-74
2022/03/08 07:01:28;;;;;;;20.93;12.33;;;0.60;99.90;;;;;;5058387;28;20307;-72
2022/03/08 07:03:55;;;;;;;17.03;11.13;;;0.70;99.90;;;;;;5055836;28;20293;-72
2022/03/08 07:06:22;;;;;;;15.93;10.77;;;0.70;99.90;;;;;;5055270;28;20201;-72
2022/03/08 07:08:50;;;;;;;17.17;11.10;;;0.80;99.90;;;;;;5057563;28;20233;-72
2022/03/08 07:11:17;;;;;;;16.00;11.10;;;0.90;99.90;;;;;;5057886;28;20292;-72
2022/03/08 07:13:46;;;;;;;17.70;11.73;;;0.80;99.90;;;;;;5061936;28;20241;-73
2022/03/08 07:16:13;;;;;;;17.87;11.97;;;0.80;99.90;;;;;;5059457;28;20615;-72
2022/03/08 07:18:40;;;;;;;17.87;12.17;;;0.90;99.90;;;;;;5059783;28;20563;-72
2022/03/08 07:21:07;;;;;;;19.10;12.77;;;0.80;99.90;;;;;;5054575;28;20673;-73
2022/03/08 07:23:35;;;;;;;18.60;13.20;;;1.00;99.90;;;;;;5063156;28;20585;-72
2022/03/08 07:26:02;;;;;;;15.20;11.10;;;0.90;99.90;;;;;;5057951;28;20210;-72
2022/03/08 07:28:28;;;;;;;18.77;11.43;;;0.90;99.90;;;;;;5058243;28;20626;-69
2022/03/08 07:30:57;;;;;;;15.37;10.17;;;0.80;99.90;;;;;;5053851;28;20206;-70
2022/03/08 07:33:23;;;;;;;12.07;9.67;;;0.90;99.90;;;;;;5055870;28;20202;-69
2022/03/08 07:35:50;;;;;;;13.10;9.27;;;0.90;99.90;;;;;;5056906;28;20340;-68
2022/03/08 07:38:17;;;;;;;14.53;10.77;;;0.90;99.90;;;;;;5056282;28;20593;-70
2022/03/08 07:40:44;;;;;;;18.23;11.32;;;1.00;99.90;;;;;;5054899;28;20994;-70
2022/03/08 07:43:11;;;;;;;16.23;11.33;;;1.00;99.90;;;;;;5054882;28;20259;-69
2022/03/08 07:45:38;;;;;;;14.60;10.40;;;1.00;99.90;;;;;;5054188;28;20228;-69
2022/03/08 07:48:07;;;;;;;16.92;11.90;;;1.00;99.90;;;;;;5059225;28;20495;-69
2022/03/08 07:50:35;;;;;;;19.10;10.77;;;1.00;99.90;;;;;;5051124;28;20589;-70
2022/03/08 07:53:03;;;;;;;13.17;10.10;;;1.00;99.90;;;;;;5040706;28;20293;-69
2022/03/08 07:55:31;;;;;;;14.50;12.30;;;1.10;99.90;;;;;;5052041;28;20542;-69
2022/03/08 07:57:58;;;;;;;15.63;11.98;;;1.10;99.90;;;;;;5049990;28;20441;-71
2022/03/08 08:00:26;;;;;;;12.63;10.23;;;1.10;99.90;;;;;;5054798;28;20267;-71
2022/03/08 08:02:53;;;;;;;14.97;11.30;;;1.10;99.90;;;;;;5046407;28;20612;-70
2022/03/08 08:05:21;;;;;;;13.73;9.57;;;1.20;99.90;;;;;;5050974;28;20289;-73
2022/03/08 08:07:48;;;;;;;13.37;9.73;;;1.20;99.90;;;;;;5047601;28;20288;-72
2022/03/08 08:10:15;;;;;;;9.90;8.03;;;1.20;99.90;;;;;;5058144;28;20296;-71
2022/03/08 08:12:42;;;;;;;11.40;8.77;;;1.20;99.90;;;;;;5047512;28;20300;-72
2022/03/08 08:15:10;;;;;;;12.17;9.03;;;1.20;99.90;;;;;;5069099;28;20273;-71
2022/03/08 08:17:37;;;;;;;11.57;8.37;;;1.20;99.90;;;;;;5057517;28;20288;-72
2022/03/08 08:20:04;;;;;;;12.40;9.43;;;1.20;99.90;;;;;;5047161;28;20264;-70
2022/03/08 08:22:32;;;;;;;14.13;9.70;;;1.20;99.90;;;;;;5040647;28;20297;-71
2022/03/08 08:24:59;;;;;;;13.00;9.57;;;1.20;99.90;;;;;;5051010;28;20229;-72
2022/03/08 08:27:26;;;;;;;13.47;9.40;;;1.20;99.90;;;;;;5057345;28;20272;-71
2022/03/08 08:29:53;;;;;;;13.33;10.23;;;1.30;99.90;;;;;;5064526;28;20281;-72
2022/03/08 08:32:20;;;;;;;16.93;11.43;;;1.30;99.90;;;;;;5057561;28;20240;-71
2022/03/08 08:34:47;;;;;;;14.70;10.57;;;1.40;99.90;;;;;;5051150;28;20225;-71
2022/03/08 08:37:13;;;;;;;12.27;9.07;;;1.50;99.90;;;;;;5049811;28;20280;-72
2022/03/08 08:39:42;;;;;;;16.07;9.70;;;1.50;99.90;;;;;;5054658;28;20297;-72
2022/03/08 08:42:09;;;;;;;12.53;9.37;;;1.50;99.90;;;;;;5050835;28;20203;-71
2022/03/08 08:44:36;;;;;;;9.37;8.30;;;1.60;99.90;;;;;;5051725;28;20214;-72
2022/03/08 08:47:04;;;;;;;11.33;7.40;;;1.70;99.90;;;;;;5058012;28;20233;-71
2022/03/08 08:49:31;;;;;;;10.63;6.77;;;1.70;99.90;;;;;;5057131;28;20216;-70
2022/03/08 08:51:57;;;;;;;9.87;6.80;;;1.80;99.90;;;;;;5059686;28;20289;-72
2022/03/08 08:54:24;;;;;;;7.43;6.63;;;1.80;99.90;;;;;;5064075;28;20205;-71
2022/03/08 08:56:53;;;;;;;8.67;7.17;;;1.80;99.90;;;;;;5055421;28;20389;-71
2022/03/08 08:59:19;;;;;;;8.33;6.73;;;1.80;99.90;;;;;;5055263;28;20683;-73
2022/03/08 09:01:46;;;;;;;8.70;6.90;;;1.90;99.90;;;;;;5052226;28;20699;-73
2022/03/08 09:04:13;;;;;;;7.73;6.93;;;1.90;99.90;;;;;;5055495;28;20289;-72
2022/03/08 09:06:41;;;;;;;9.00;6.90;;;1.90;99.90;;;;;;5054099;28;20314;-72
2022/03/08 09:09:09;;;;;;;9.37;7.43;;;2.00;99.90;;;;;;5066775;28;20248;-72
2022/03/08 09:11:36;;;;;;;9.67;7.17;;;2.00;99.90;;;;;;5058822;28;20729;-73
2022/03/08 09:14:05;;;;;;;10.17;7.37;;;2.10;99.90;;;;;;5056676;28;20240;-73
2022/03/08 09:16:32;;;;;;;9.80;7.90;;;2.10;99.90;;;;;;5055806;28;20226;-72
2022/03/08 09:18:59;;;;;;;10.00;7.53;;;2.20;99.90;;;;;;5052748;28;20233;-72
2022/03/08 09:21:26;;;;;;;10.13;8.10;;;2.30;99.90;;;;;;5046854;28;20317;-73
2022/03/08 09:23:53;;;;;;;9.07;7.57;;;2.30;99.90;;;;;;5054678;28;20704;-72
2022/03/08 09:26:20;;;;;;;10.60;8.83;;;2.40;99.90;;;;;;5050354;28;20214;-71
2022/03/08 09:28:47;;;;;;;12.23;8.40;;;2.50;99.90;;;;;;5065622;28;20566;-71
2022/03/08 09:31:15;;;;;;;12.73;8.87;;;2.50;99.90;;;;;;5052390;28;20293;-71
2022/03/08 09:33:42;;;;;;;11.53;8.77;;;2.60;99.90;;;;;;5056603;28;20213;-70
2022/03/08 09:36:09;;;;;;;9.57;8.20;;;2.70;99.90;;;;;;5061492;28;20224;-72
2022/03/08 09:38:37;;;;;;;9.07;7.10;;;2.70;99.90;;;;;;5062191;28;20207;-72
2022/03/08 09:41:04;;;;;;;8.43;6.97;;;2.80;99.90;;;;;;5055351;28;20254;-71
2022/03/08 09:43:31;;;;;;;8.27;7.13;;;2.80;99.90;;;;;;5050814;28;20229;-71
2022/03/08 09:45:58;;;;;;;10.07;7.57;;;2.80;99.90;;;;;;5053606;28;20663;-71
2022/03/08 09:48:26;;;;;;;9.80;7.10;;;3.00;99.90;;;;;;5052940;28;20214;-72
2022/03/08 09:50:54;;;;;;;9.13;7.13;;;3.10;99.90;;;;;;5050185;28;20207;-71
2022/03/08 09:53:21;;;;;;;9.27;6.67;;;3.10;99.90;;;;;;5049841;28;20584;-72
2022/03/08 09:55:48;;;;;;;9.53;7.93;;;3.30;99.90;;;;;;5045123;28;20264;-72
2022/03/08 09:58:19;;;;;;;9.07;6.93;;;3.20;99.90;;;;;;5042496;28;20671;-72
2022/03/08 10:00:46;;;;;;;9.07;6.90;;;3.30;99.90;;;;;;5054410;28;20638;-71
2022/03/08 10:03:13;;;;;;;7.37;6.40;;;3.40;99.90;;;;;;5047483;28;20703;-69
2022/03/08 10:05:41;;;;;;;7.57;6.00;;;3.40;99.90;;;;;;5044986;28;20285;-71
2022/03/08 10:08:12;;;;;;;9.70;6.23;;;3.50;99.90;;;;;;5048690;28;20206;-71
2022/03/08 10:10:52;;;;;;;5.80;5.07;;;3.50;99.90;;;;;;5047003;28;20264;-70
2022/03/08 10:13:21;;;;;;;7.33;5.97;;;3.60;99.90;;;;;;5054309;28;20205;-71
2022/03/08 10:16:08;;;;;;;6.03;4.73;;;3.90;99.90;;;;;;5058276;28;20226;-70
2022/03/08 10:18:36;;;;;;;5.43;4.53;;;4.90;99.90;;;;;;5048782;28;20293;-71
2022/03/08 10:21:05;;;;;;;6.07;4.47;;;5.30;99.90;;;;;;5059085;28;20568;-70
2022/03/08 10:23:42;;;;;;;4.80;4.30;;;6.30;99.90;;;;;;5061407;28;20201;-71
2022/03/08 10:26:12;;;;;;;5.73;4.47;;;6.60;99.90;;;;;;5053405;28;20245;-71
2022/03/08 10:28:46;;;;;;;5.33;4.50;;;6.50;99.90;;;;;;5064376;28;20565;-72
2022/03/08 10:31:15;;;;;;;6.27;5.43;;;6.30;99.90;;;;;;5058306;28;20218;-71
2022/03/08 10:33:43;;;;;;;8.00;5.90;;;6.00;99.90;;;;;;5076217;28;20209;-72
2022/03/08 10:36:17;;;;;;;10.07;7.67;;;5.90;99.90;;;;;;5069411;28;20267;-71
2022/03/08 10:39:03;;;;;;;9.20;6.67;;;6.00;99.90;;;;;;5063359;28;20214;-70
2022/03/08 10:41:30;;;;;;;9.67;6.50;;;6.10;99.90;;;;;;5060503;28;20205;-71
2022/03/08 10:43:57;;;;;;;7.90;6.17;;;6.10;99.90;;;;;;5056549;28;20248;-71
2022/03/08 10:46:26;;;;;;;8.73;6.43;;;6.20;99.90;;;;;;5044591;28;20229;-72
2022/03/08 10:48:54;;;;;;;8.03;5.40;;;6.70;99.90;;;;;;5053171;28;20259;-72
2022/03/08 10:51:22;;;;;;;6.30;5.70;;;7.00;99.90;;;;;;5045542;28;20213;-72
2022/03/08 10:53:49;;;;;;;8.70;5.53;;;7.30;99.90;;;;;;5048088;28;20214;-72
2022/03/08 10:56:23;;;;;;;6.13;4.67;;;8.90;99.90;;;;;;5043836;28;20269;-71
2022/03/08 10:58:51;;;;;;;8.93;4.33;;;10.70;96.70;;;;;;5043745;28;20229;-71
2022/03/08 11:01:18;;;;;;;6.07;3.87;;;11.00;87.80;;;;;;5046999;28;20206;-70
2022/03/08 11:04:00;;;;;;;5.67;4.50;;;10.90;85.70;;;;;;5057546;28;20296;-72
2022/03/08 11:06:29;;;;;;;8.67;5.40;;;10.50;78.60;;;;;;5049353;28;20205;-71
2022/03/08 11:08:56;;;;;;;4.60;4.20;;;10.20;87.90;;;;;;5067019;28;20202;-72
2022/03/08 11:11:23;;;;;;;6.23;4.23;;;11.70;86.90;;;;;;5084525;28;20205;-71
2022/03/08 11:13:54;;;;;;;4.97;3.77;;;13.70;78.40;;;;;;5072909;28;20186;-71
2022/03/08 11:16:21;;;;;;;4.63;3.77;;;14.10;74.80;;;;;;5069397;28;20285;-71
2022/03/08 11:18:51;;;;;;;5.23;3.90;;;16.90;67.20;;;;;;5085791;28;20232;-72
2022/03/08 11:21:19;;;;;;;3.10;2.80;;;20.00;57.40;;;;;;5057059;28;20224;-69
2022/03/08 11:23:51;;;;;;;6.57;3.10;;;23.90;48.00;;;;;;5050036;28;20225;-71
2022/03/08 11:26:19;;;;;;;3.63;3.00;;;26.50;38.70;;;;;;5066183;28;20228;-72
2022/03/08 11:28:48;;;;;;;4.43;2.35;;;26.80;35.70;;;;;;5066353;28;20203;-71
2022/03/08 11:31:18;;;;;;;3.97;2.40;;;25.40;34.00;;;;;;5071617;28;20245;-71
2022/03/08 11:33:55;;;;;;;3.00;2.38;;;24.00;35.50;;;;;;5063224;28;20206;-72
2022/03/08 11:36:28;;;;;;;2.33;2.13;;;23.40;35.80;;;;;;5076316;28;20225;-72
2022/03/08 11:39:22;;;;;;;3.47;1.95;;;21.90;35.70;;;;;;5068365;28;20198;-71
2022/03/08 11:41:51;;;;;;;5.32;2.17;;;20.40;36.20;;;;;;5073497;28;20193;-70
2022/03/08 11:44:23;;;;;;;2.55;2.35;;;19.60;39.60;;;;;;5067220;28;20201;-72
2022/03/08 11:47:03;;;;;;;4.22;3.00;;;19.00;37.60;;;;;;5067312;28;20238;-71
2022/03/08 11:49:42;;;;;;;3.05;2.25;;;18.20;40.90;;;;;;5068433;28;20211;-70
2022/03/08 11:52:14;;;;;;;3.38;2.60;;;19.60;40.60;;;;;;5068499;28;20201;-71
2022/03/08 11:54:51;;;;;;;3.15;2.70;;;19.60;39.40;;;;;;5063692;28;20640;-71
2022/03/08 11:57:52;;;;;;;3.67;2.45;;;19.60;40.40;;;;;;5071811;28;20213;-71
2022/03/08 12:00:20;;;;;;;3.85;2.00;;;22.80;38.00;;;;;;5065086;28;20211;-72
2022/03/08 12:02:48;;;;;;;2.40;2.08;;;26.60;34.90;;;;;;5063063;28;20316;-71
2022/03/08 12:05:46;;;;;;;3.03;1.65;;;29.70;30.00;;;;;;5066676;28;20331;-72
2022/03/08 12:08:52;;;;;;;3.00;2.15;;;32.20;28.20;;;;;;5063457;28;20236;-72
2022/03/08 12:11:41;;;;;;;1.55;1.45;;;34.50;26.40;;;;;;5077532;28;20216;-71
2022/03/08 12:14:14;;;;;;;2.58;1.80;;;36.70;24.60;;;;;;5062229;28;20209;-72
2022/03/08 12:16:44;;;;;;;1.77;1.50;;;38.10;23.70;;;;;;5067309;28;20293;-71
2022/03/08 12:19:13;;;;;;;2.85;1.80;;;38.90;22.70;;;;;;5060879;28;20237;-72
2022/03/08 12:21:45;;;;;;;1.77;1.55;;;38.60;22.10;;;;;;5067407;28;20293;-72
2022/03/08 12:24:15;;;;;;;2.13;1.70;;;36.60;22.10;;;;;;5065051;28;20237;-71
2022/03/08 12:26:54;;;;;;;1.80;1.70;;;34.80;22.50;;;;;;5070856;28;20258;-72
2022/03/08 12:29:24;;;;;;;2.25;1.75;;;33.90;23.80;;;;;;5071128;28;20197;-72
2022/03/08 12:32:11;;;;;;;3.67;1.70;;;33.00;23.90;;;;;;5068596;28;20205;-73
2022/03/08 12:34:42;;;;;;;1.98;1.70;;;32.80;23.80;;;;;;5068903;28;20233;-71
2022/03/08 12:37:11;;;;;;;2.20;1.60;;;32.80;23.70;;;;;;5077190;28;20213;-73
2022/03/08 12:39:50;;;;;;;1.92;1.48;;;33.70;24.00;;;;;;5058988;28;20210;-71
2022/03/08 12:42:21;;;;;;;2.17;1.35;;;35.30;23.30;;;;;;5063808;28;20217;-70
2022/03/08 12:44:57;;;;;;;4.43;1.80;;;35.60;22.00;;;;;;5069321;28;20224;-71
2022/03/08 12:47:25;;;;;;;2.00;1.48;;;35.10;22.90;;;;;;5067081;28;20297;-70
2022/03/08 12:49:53;;;;;;;3.10;1.50;;;36.00;22.50;;;;;;5071847;28;20197;-70
2022/03/08 12:52:21;;;;;;;1.83;1.50;;;35.80;21.80;;;;;;5080097;28;20209;-70
2022/03/08 12:54:48;;;;;;;1.92;1.30;;;34.20;22.20;;;;;;5072196;28;20209;-71
2022/03/08 12:57:17;;;;;;;2.20;1.50;;;32.00;22.00;;;;;;5074601;28;20225;-71